Midland City, AL

1:12 PM CST on December 09, 2019 (GMT -0600)
Asbury | | Change Station

Elev 367 ft 31.51 °N, 85.55 °W | Updated 24 seconds ago

Clear
Clear
72 °F
Feels Like 74 °F
N
0
Wind Variable Wind from South
Gusts 6.0 mph

Today
High -- | Low -- °F
--% Chance of Precip.
Yesterday
High -- | Low -- °F
Precip. -- in
Pressure 30.04 in
Visibility 10.0 miles
Clouds Few 3200 ft
Heat Index 74 °F
Dew Point 62 °F
Humidity 71%
Rainfall 0.08 in
Snow Depth Not available.
6:29 AM 4:38 PM
Waxing Gibbous, 94% visible
METAR KDHN 091753Z 22012KT 10SM FEW032 22/16 A3005 RMK AO2 SLP170 60000 T02220156 10228 20167 58014
Pressure 30.04 in
Visibility 10.0 miles
Clouds Few 3200 ft
Heat Index 74 °F
Dew Point 62 °F
Humidity 71%
Rainfall 0.08 in
Snow Depth Not available.
6:29 AM 4:38 PM
Waxing Gibbous, 94% visible
METAR KDHN 091753Z 22012KT 10SM FEW032 22/16 A3005 RMK AO2 SLP170 60000 T02220156 10228 20167 58014

Get Severe Weather Alerts

Thanks for signing up!

Be on the lookout for a verification email in your inbox.

You'll start receiving the daily forecast at 6 AM.

×

10-Day Weather Forecast

Almanac

Astronomy

Dec. 09, 2019 Rise Set
Actual Time
Civil Twilight
Nautical Twilight
Astronomical Twilight
Moon
Length of Visible Light
Length of Day
Tomorrow will be .
, % of the Moon is Illuminated

Today's Extremes

State Highs State Lows

Community

WunderPhotos

Category 6

Welcome to Category 6. This is the collective home for Weather Underground's featured writeups by Dr. Jeff Masters (right), Bob Henson (left), Chris Burt, and other regular contributors.

Nearby

Air Quality

  Air Quality AQ Index Pollutant
Not available.

Snow Depth

Station Depth Elevation

Earthquake Activity

City Distance Mag. Time & Date
Minimum magnitude displayed is 2.5.

Coastal Water Temperatures

Place Temperature

Stations

Nearby Weather Stations

Station Location Temp. Windchill Dew Point Humidity Wind Precip. Elev Updated Type
                   

Watches & Warnings

There are currently no watches in effect.